createdAt,value
2022-08-31T00:00:44.165Z,16.49
2022-08-31T00:03:42.196Z,16.40
2022-08-31T00:06:20.912Z,16.45
2022-08-31T00:09:02.759Z,16.55
2022-08-31T00:11:43.472Z,16.54
2022-08-31T00:14:22.854Z,16.53
2022-08-31T00:17:02.349Z,16.60
2022-08-31T00:19:41.865Z,16.53
2022-08-31T00:22:20.659Z,16.57
2022-08-31T00:25:02.142Z,16.42
2022-08-31T00:27:40.328Z,16.49
2022-08-31T00:30:19.724Z,16.60
2022-08-31T00:33:00.441Z,16.50
2022-08-31T00:35:43.340Z,16.44
2022-08-31T00:38:23.942Z,16.57
2022-08-31T00:41:05.573Z,16.45
2022-08-31T00:43:48.770Z,16.42
2022-08-31T00:46:30.190Z,16.41
2022-08-31T00:49:10.229Z,16.42
2022-08-31T00:51:51.367Z,16.31
2022-08-31T00:54:32.737Z,16.49
2022-08-31T00:57:12.267Z,16.30
2022-08-31T00:59:56.835Z,16.32
2022-08-31T01:02:38.946Z,16.25
2022-08-31T01:05:39.605Z,16.36
2022-08-31T01:08:27.123Z,16.23
2022-08-31T01:11:15.391Z,16.37
2022-08-31T01:13:56.133Z,16.27
2022-08-31T01:16:41.954Z,16.26
2022-08-31T01:19:28.285Z,16.31
2022-08-31T01:22:16.183Z,16.37
2022-08-31T01:24:56.038Z,16.26
2022-08-31T01:27:36.397Z,16.08
2022-08-31T01:30:24.277Z,16.09
2022-08-31T01:33:06.175Z,16.15
2022-08-31T01:35:47.084Z,16.01
2022-08-31T01:38:29.090Z,15.96
2022-08-31T01:41:10.110Z,15.89
2022-08-31T01:43:57.050Z,15.83
2022-08-31T01:46:36.623Z,15.88
2022-08-31T01:49:17.551Z,15.84
2022-08-31T01:51:58.963Z,15.79
2022-08-31T01:54:38.136Z,15.60
2022-08-31T01:57:18.899Z,15.69
2022-08-31T02:00:27.887Z,15.76
2022-08-31T02:03:12.553Z,15.76
2022-08-31T02:06:08.224Z,15.67
2022-08-31T02:08:48.315Z,15.60
2022-08-31T02:11:26.787Z,15.66
2022-08-31T02:14:07.655Z,15.49
2022-08-31T02:16:49.114Z,15.50
2022-08-31T02:19:29.001Z,15.53
2022-08-31T02:22:11.550Z,15.48
2022-08-31T02:24:50.665Z,15.42
2022-08-31T02:27:33.142Z,15.49
2022-08-31T02:30:23.918Z,15.42
2022-08-31T02:33:38.284Z,15.40
2022-08-31T02:36:17.009Z,15.34
2022-08-31T02:38:56.241Z,15.36
2022-08-31T02:41:38.669Z,15.35
2022-08-31T02:44:21.285Z,15.18
2022-08-31T02:47:45.961Z,15.34
2022-08-31T02:50:42.052Z,15.34
2022-08-31T02:53:22.476Z,15.32
2022-08-31T02:56:03.539Z,15.37
2022-08-31T02:58:47.079Z,15.32
2022-08-31T03:01:29.487Z,15.31
2022-08-31T03:04:10.022Z,15.30
2022-08-31T03:06:50.300Z,15.32
2022-08-31T03:09:31.712Z,15.30
2022-08-31T03:12:11.556Z,15.20
2022-08-31T03:14:52.671Z,15.04
2022-08-31T03:17:33.826Z,15.18
2022-08-31T03:20:21.987Z,15.19
2022-08-31T03:23:05.143Z,15.18
2022-08-31T03:26:08.045Z,15.09
2022-08-31T03:28:48.737Z,15.10
2022-08-31T03:32:04.533Z,15.07
2022-08-31T03:34:46.766Z,15.06
2022-08-31T03:37:27.734Z,14.98
2022-08-31T03:40:10.953Z,15.03
2022-08-31T03:42:49.961Z,15.05
2022-08-31T03:45:28.786Z,15.07
2022-08-31T03:48:12.834Z,15.09
2022-08-31T03:50:54.194Z,14.98
2022-08-31T03:53:39.250Z,14.99
2022-08-31T03:56:20.967Z,14.99
2022-08-31T03:59:04.408Z,14.98
2022-08-31T04:02:03.106Z,14.97
2022-08-31T04:05:01.026Z,14.98
2022-08-31T04:08:06.336Z,14.96
2022-08-31T04:11:20.113Z,14.90
2022-08-31T04:14:34.561Z,14.88
2022-08-31T04:17:33.457Z,14.88
2022-08-31T04:20:36.456Z,14.89
2022-08-31T04:23:20.188Z,14.86
2022-08-31T04:26:04.300Z,14.84
2022-08-31T04:28:48.472Z,14.76
2022-08-31T04:31:32.381Z,14.84
2022-08-31T04:34:12.360Z,14.80
2022-08-31T04:36:54.708Z,14.73
2022-08-31T04:39:33.988Z,14.71
2022-08-31T04:42:17.951Z,14.64
2022-08-31T04:45:00.549Z,14.65
2022-08-31T04:47:42.937Z,14.61
2022-08-31T04:50:22.530Z,14.65
2022-08-31T04:53:20.715Z,14.64
2022-08-31T04:56:16.041Z,14.63
2022-08-31T04:59:00.216Z,14.53
2022-08-31T05:01:45.569Z,14.49
2022-08-31T05:04:46.014Z,14.58
2022-08-31T05:07:25.655Z,14.62
2022-08-31T05:10:08.111Z,14.58
2022-08-31T05:12:51.697Z,14.66
2022-08-31T05:15:33.405Z,14.55
2022-08-31T05:18:14.033Z,14.62
2022-08-31T05:21:09.923Z,14.75
2022-08-31T05:23:50.028Z,14.74
2022-08-31T05:26:31.349Z,14.78
2022-08-31T05:29:12.064Z,14.83
2022-08-31T05:31:52.795Z,14.82
2022-08-31T05:34:33.472Z,14.89
2022-08-31T05:37:12.931Z,14.92
2022-08-31T05:39:52.062Z,14.87
2022-08-31T05:42:30.870Z,14.91
2022-08-31T05:45:10.027Z,14.93
2022-08-31T05:47:51.086Z,14.96
2022-08-31T05:50:32.508Z,15.00
2022-08-31T05:53:15.564Z,14.93
2022-08-31T05:56:01.271Z,15.13
2022-08-31T05:58:44.475Z,15.16
2022-08-31T06:01:30.961Z,15.05
2022-08-31T06:05:11.996Z,15.09
2022-08-31T06:07:52.619Z,15.07
2022-08-31T06:10:34.740Z,15.20
2022-08-31T06:13:16.113Z,15.31
2022-08-31T06:15:59.363Z,15.37
2022-08-31T06:18:41.011Z,15.31
2022-08-31T06:21:22.658Z,15.40
2022-08-31T06:24:04.199Z,15.45
2022-08-31T06:26:58.055Z,15.55
2022-08-31T06:29:41.939Z,15.53
2022-08-31T06:32:22.056Z,15.62
2022-08-31T06:35:16.432Z,15.66
2022-08-31T06:38:14.300Z,15.69
2022-08-31T06:41:02.925Z,15.85
2022-08-31T06:43:57.011Z,15.79
2022-08-31T06:46:52.107Z,15.92
2022-08-31T06:49:33.602Z,15.94
2022-08-31T06:52:12.218Z,15.97
2022-08-31T06:54:53.668Z,15.96
2022-08-31T06:57:53.235Z,16.09
2022-08-31T07:00:50.172Z,16.04
2022-08-31T07:03:57.889Z,16.10
2022-08-31T07:06:40.835Z,16.28
2022-08-31T07:09:20.848Z,16.38
2022-08-31T07:12:05.427Z,16.51
2022-08-31T07:14:50.386Z,16.66
2022-08-31T07:17:36.906Z,16.75
2022-08-31T07:20:18.991Z,16.92
2022-08-31T07:22:59.299Z,16.87
2022-08-31T07:25:44.809Z,17.04
2022-08-31T07:28:25.507Z,17.18
2022-08-31T07:31:05.546Z,17.34
2022-08-31T07:33:45.099Z,17.25
2022-08-31T07:36:26.529Z,17.53
2022-08-31T07:39:25.731Z,17.72
2022-08-31T07:42:12.836Z,17.73
2022-08-31T07:44:55.078Z,17.80
2022-08-31T07:47:37.859Z,18.05
2022-08-31T07:50:18.327Z,18.21
2022-08-31T07:53:08.524Z,18.35
2022-08-31T07:55:58.498Z,18.56
2022-08-31T07:58:47.668Z,18.41
2022-08-31T08:01:32.602Z,18.81
2022-08-31T08:04:25.188Z,19.01
2022-08-31T08:07:45.263Z,19.21
2022-08-31T08:11:04.057Z,19.67
2022-08-31T08:13:54.279Z,19.68
2022-08-31T08:16:40.118Z,20.09
2022-08-31T08:19:49.641Z,20.47
2022-08-31T08:22:50.943Z,20.75
2022-08-31T08:26:09.631Z,20.58
2022-08-31T08:29:16.385Z,21.07
2022-08-31T08:32:00.350Z,21.31
2022-08-31T08:34:43.665Z,20.94
2022-08-31T08:37:47.473Z,20.93
2022-08-31T08:40:32.489Z,21.22
2022-08-31T08:43:16.091Z,21.36
2022-08-31T08:46:25.224Z,21.63
2022-08-31T08:49:14.138Z,21.18
2022-08-31T08:51:57.556Z,21.31
2022-08-31T08:54:40.642Z,21.29
2022-08-31T08:57:27.397Z,21.35
2022-08-31T09:00:11.393Z,20.99
2022-08-31T09:03:01.804Z,21.57
2022-08-31T09:06:02.880Z,21.38
2022-08-31T09:08:59.533Z,21.92
2022-08-31T09:11:50.110Z,21.52
2022-08-31T09:14:40.197Z,21.97
2022-08-31T09:17:35.882Z,22.16
2022-08-31T09:20:16.889Z,22.55
2022-08-31T09:23:01.379Z,22.13
2022-08-31T09:25:52.093Z,22.54
2022-08-31T09:28:47.133Z,22.03
2022-08-31T09:31:38.251Z,22.59
2022-08-31T09:34:29.428Z,22.99
2022-08-31T09:37:23.581Z,22.91
2022-08-31T09:40:16.682Z,22.78
2022-08-31T09:43:06.880Z,22.78
2022-08-31T09:45:55.710Z,22.50
2022-08-31T09:48:44.015Z,22.30
2022-08-31T09:51:28.257Z,22.51
2022-08-31T09:54:45.924Z,22.75
2022-08-31T09:57:43.873Z,22.63
2022-08-31T10:00:31.634Z,22.34
2022-08-31T10:03:18.835Z,22.78
2022-08-31T10:06:02.029Z,22.97
2022-08-31T10:08:46.140Z,23.05
2022-08-31T10:11:28.384Z,23.72
2022-08-31T10:14:16.818Z,23.83
2022-08-31T10:17:04.068Z,23.76
2022-08-31T10:19:54.387Z,23.96
2022-08-31T10:22:37.063Z,23.88
2022-08-31T10:25:24.302Z,23.88
2022-08-31T10:28:11.994Z,24.03
2022-08-31T10:31:04.687Z,24.01
2022-08-31T10:34:22.632Z,23.96
2022-08-31T10:37:25.778Z,24.85
2022-08-31T10:40:09.403Z,24.98
2022-08-31T10:42:59.332Z,25.24
2022-08-31T10:45:43.006Z,25.13
2022-08-31T10:48:27.413Z,25.11
2022-08-31T10:51:22.199Z,25.09
2022-08-31T10:54:12.134Z,25.64
2022-08-31T10:56:59.098Z,25.53
2022-08-31T10:59:41.753Z,25.75
2022-08-31T11:02:41.277Z,26.29
2022-08-31T11:05:35.152Z,26.14
2022-08-31T11:08:35.182Z,26.40
2022-08-31T11:11:19.745Z,26.44
2022-08-31T11:15:06.243Z,26.94
2022-08-31T11:17:57.431Z,27.36
2022-08-31T11:20:55.843Z,27.78
2022-08-31T11:23:51.444Z,27.49
2022-08-31T11:26:40.394Z,27.60
2022-08-31T11:29:41.338Z,26.93
2022-08-31T11:32:27.550Z,27.59
2022-08-31T11:35:10.352Z,27.85
2022-08-31T11:37:57.060Z,28.05
2022-08-31T11:41:03.641Z,27.97
2022-08-31T11:43:52.326Z,28.71
2022-08-31T11:47:05.115Z,27.83
2022-08-31T11:49:49.854Z,27.97
2022-08-31T11:52:41.966Z,28.71
2022-08-31T11:55:46.445Z,29.33
2022-08-31T11:58:49.488Z,28.92
2022-08-31T12:01:35.659Z,29.22
2022-08-31T12:05:02.888Z,28.89
2022-08-31T12:07:46.266Z,28.81
2022-08-31T12:10:43.231Z,28.55
2022-08-31T12:13:34.963Z,29.03
2022-08-31T12:16:43.200Z,28.22
2022-08-31T12:19:53.740Z,28.58
2022-08-31T12:23:30.248Z,28.71
2022-08-31T12:26:31.011Z,28.91
2022-08-31T12:29:30.546Z,28.89
2022-08-31T12:32:17.395Z,29.06
2022-08-31T12:35:04.029Z,28.78
2022-08-31T12:37:43.846Z,28.87
2022-08-31T12:40:25.905Z,28.82
2022-08-31T12:43:18.490Z,28.93
2022-08-31T12:46:26.134Z,29.26
2022-08-31T12:49:31.981Z,28.74
2022-08-31T12:52:21.506Z,29.33
2022-08-31T12:55:16.705Z,28.75
2022-08-31T12:58:10.481Z,29.03
2022-08-31T13:00:51.074Z,28.71
2022-08-31T13:03:30.947Z,29.06
2022-08-31T13:06:14.173Z,28.62
2022-08-31T13:08:54.051Z,29.40
2022-08-31T13:11:39.899Z,28.68
2022-08-31T13:14:24.953Z,28.13
2022-08-31T13:17:14.918Z,28.75
2022-08-31T13:20:00.629Z,28.62
2022-08-31T13:22:42.774Z,28.96
2022-08-31T13:25:35.751Z,28.16
2022-08-31T13:28:35.128Z,28.98
2022-08-31T13:31:20.299Z,28.78
2022-08-31T13:34:02.957Z,27.75
2022-08-31T13:36:47.697Z,27.88
2022-08-31T13:39:34.858Z,28.29
2022-08-31T13:42:31.797Z,28.50
2022-08-31T13:45:26.119Z,28.55
2022-08-31T13:48:27.307Z,28.04
2022-08-31T13:51:13.457Z,27.43
2022-08-31T13:54:08.470Z,27.23
2022-08-31T13:56:57.461Z,26.59
2022-08-31T13:59:38.775Z,26.88
2022-08-31T14:02:36.673Z,27.11
2022-08-31T14:05:30.779Z,26.52
2022-08-31T14:08:25.021Z,26.01
2022-08-31T14:11:14.046Z,25.64
2022-08-31T14:13:52.647Z,25.90
2022-08-31T14:16:36.883Z,25.44
2022-08-31T14:19:30.333Z,25.46
2022-08-31T14:22:28.483Z,25.45
2022-08-31T14:25:07.500Z,25.02
2022-08-31T14:27:46.748Z,25.13
2022-08-31T14:30:26.205Z,24.69
2022-08-31T14:33:11.865Z,24.96
2022-08-31T14:35:55.358Z,24.66
2022-08-31T14:38:35.465Z,24.46
2022-08-31T14:41:19.637Z,24.38
2022-08-31T14:44:06.902Z,24.02
2022-08-31T14:46:47.451Z,24.06
2022-08-31T14:49:33.912Z,24.01
2022-08-31T14:52:17.204Z,23.92
2022-08-31T14:55:00.473Z,23.73
2022-08-31T14:57:43.396Z,23.81
2022-08-31T15:00:31.694Z,23.79
2022-08-31T15:03:12.099Z,23.79
2022-08-31T15:05:52.479Z,23.63
2022-08-31T15:08:38.022Z,23.68
2022-08-31T15:11:19.308Z,23.67
2022-08-31T15:13:57.954Z,23.43
2022-08-31T15:16:41.018Z,23.41
2022-08-31T15:19:23.037Z,23.29
2022-08-31T15:22:09.303Z,23.27
2022-08-31T15:24:49.981Z,23.30
2022-08-31T15:27:31.330Z,23.24
2022-08-31T15:30:12.600Z,23.24
2022-08-31T15:32:54.472Z,23.10
2022-08-31T15:35:34.417Z,23.20
2022-08-31T15:38:17.632Z,23.14
2022-08-31T15:41:00.110Z,23.29
2022-08-31T15:43:41.556Z,23.14
2022-08-31T15:46:43.158Z,23.16
2022-08-31T15:49:23.618Z,23.12
2022-08-31T15:52:06.819Z,23.02
2022-08-31T15:54:50.351Z,22.98
2022-08-31T15:57:31.615Z,22.85
2022-08-31T16:00:19.776Z,22.64
2022-08-31T16:03:13.243Z,22.72
2022-08-31T16:05:54.093Z,22.61
2022-08-31T16:08:34.394Z,22.53
2022-08-31T16:11:14.278Z,22.55
2022-08-31T16:13:58.655Z,22.54
2022-08-31T16:16:42.793Z,22.55
2022-08-31T16:19:35.173Z,22.47
2022-08-31T16:22:18.770Z,22.40
2022-08-31T16:24:58.957Z,22.37
2022-08-31T16:27:40.842Z,22.21
2022-08-31T16:30:22.922Z,22.21
2022-08-31T16:33:02.994Z,22.28
2022-08-31T16:35:44.522Z,22.28
2022-08-31T16:38:24.248Z,22.24
2022-08-31T16:41:04.992Z,22.16
2022-08-31T16:44:03.415Z,22.10
2022-08-31T16:47:01.592Z,22.02
2022-08-31T16:49:41.269Z,21.97
2022-08-31T16:52:26.467Z,21.90
2022-08-31T16:55:13.541Z,21.94
2022-08-31T16:58:29.768Z,22.01
2022-08-31T17:01:19.965Z,21.92
2022-08-31T17:04:04.663Z,21.88
2022-08-31T17:06:47.599Z,21.69
2022-08-31T17:09:28.832Z,21.79
2022-08-31T17:12:12.157Z,21.70
2022-08-31T17:14:53.118Z,21.63
2022-08-31T17:18:15.293Z,21.66
2022-08-31T17:20:54.863Z,21.64
2022-08-31T17:23:37.961Z,21.62
2022-08-31T17:26:18.390Z,21.59
2022-08-31T17:29:01.879Z,21.48
2022-08-31T17:31:44.920Z,21.40
2022-08-31T17:34:28.719Z,21.43
2022-08-31T17:37:15.254Z,21.45
2022-08-31T17:39:56.825Z,21.39
2022-08-31T17:42:39.010Z,21.26
2022-08-31T17:45:19.097Z,21.54
2022-08-31T17:47:58.588Z,21.48
2022-08-31T17:50:43.582Z,21.56
2022-08-31T17:53:24.250Z,21.44
2022-08-31T17:56:06.257Z,21.09
2022-08-31T17:58:47.054Z,20.96
2022-08-31T18:01:30.462Z,20.80
2022-08-31T18:04:10.242Z,20.85
2022-08-31T18:06:51.582Z,20.79
2022-08-31T18:09:34.951Z,20.77
2022-08-31T18:12:16.714Z,20.80
2022-08-31T18:14:59.208Z,20.80
2022-08-31T18:17:37.271Z,20.79
2022-08-31T18:20:17.859Z,20.73
2022-08-31T18:22:56.904Z,20.73
2022-08-31T18:25:36.961Z,20.63
2022-08-31T18:28:17.938Z,20.55
2022-08-31T18:30:56.278Z,20.66
2022-08-31T18:33:38.197Z,20.55
2022-08-31T18:36:19.328Z,20.24
2022-08-31T18:39:04.206Z,20.14
2022-08-31T18:42:17.726Z,19.99
2022-08-31T18:45:18.591Z,19.94
2022-08-31T18:48:34.943Z,19.84
2022-08-31T18:51:03.600Z,19.69
2022-08-31T18:53:46.991Z,19.59
2022-08-31T18:56:29.619Z,19.52
2022-08-31T18:59:10.642Z,19.41
2022-08-31T19:01:51.452Z,19.32
2022-08-31T19:04:32.213Z,19.15
2022-08-31T19:07:16.318Z,19.12
2022-08-31T19:09:59.284Z,19.06
2022-08-31T19:12:42.582Z,18.97
2022-08-31T19:15:25.526Z,18.87
2022-08-31T19:18:13.961Z,18.79
2022-08-31T19:20:53.619Z,18.81
2022-08-31T19:23:36.202Z,18.60
2022-08-31T19:26:22.384Z,18.48
2022-08-31T19:29:08.769Z,18.32
2022-08-31T19:31:50.454Z,18.20
2022-08-31T19:34:30.817Z,18.05
2022-08-31T19:37:11.528Z,18.08
2022-08-31T19:39:50.266Z,18.04
2022-08-31T19:45:42.456Z,17.90
2022-08-31T19:48:24.896Z,17.85
2022-08-31T19:51:10.090Z,17.76
2022-08-31T19:53:55.130Z,17.71
2022-08-31T19:56:35.651Z,17.62
2022-08-31T19:59:20.015Z,17.59
2022-08-31T20:02:02.828Z,17.40
2022-08-31T20:04:45.259Z,17.39
2022-08-31T20:07:26.558Z,17.37
2022-08-31T20:10:10.147Z,17.33
2022-08-31T20:12:49.972Z,17.27
2022-08-31T20:15:31.853Z,17.22
2022-08-31T20:18:13.832Z,17.13
2022-08-31T20:20:56.693Z,17.10
2022-08-31T20:23:36.221Z,17.01
2022-08-31T20:26:15.475Z,16.97
2022-08-31T20:28:58.771Z,16.91
2022-08-31T20:31:40.751Z,16.88
2022-08-31T20:34:22.873Z,16.82
2022-08-31T20:37:04.008Z,16.79
2022-08-31T20:39:44.821Z,16.64
2022-08-31T20:42:25.699Z,16.59
2022-08-31T20:45:04.360Z,16.51
2022-08-31T20:48:02.883Z,16.48
2022-08-31T20:50:42.720Z,16.39
2022-08-31T20:53:43.280Z,16.39
2022-08-31T20:56:26.179Z,16.36
2022-08-31T20:59:08.584Z,16.31
2022-08-31T21:01:48.587Z,16.36
2022-08-31T21:04:29.650Z,16.35
2022-08-31T21:07:12.788Z,16.30
2022-08-31T21:09:51.997Z,16.26
2022-08-31T21:12:31.003Z,16.24
2022-08-31T21:15:12.081Z,16.18
2022-08-31T21:17:52.584Z,16.13
2022-08-31T21:20:32.639Z,16.11
2022-08-31T21:23:13.401Z,16.08
2022-08-31T21:25:55.077Z,16.05
2022-08-31T21:28:35.914Z,16.01
2022-08-31T21:31:29.013Z,15.97
2022-08-31T21:34:10.066Z,15.94
2022-08-31T21:36:50.770Z,15.91
2022-08-31T21:39:32.588Z,15.84
2022-08-31T21:42:13.221Z,15.78
2022-08-31T21:44:53.155Z,15.91
2022-08-31T21:47:34.398Z,15.90
2022-08-31T21:50:14.301Z,15.81
2022-08-31T21:52:59.645Z,15.85
2022-08-31T21:55:39.449Z,15.89
2022-08-31T21:58:22.071Z,15.89
2022-08-31T22:01:01.549Z,15.90
2022-08-31T22:03:40.629Z,15.82
2022-08-31T22:06:26.686Z,15.79
2022-08-31T22:09:25.536Z,15.75
2022-08-31T22:12:06.685Z,15.70
2022-08-31T22:14:45.976Z,15.73
2022-08-31T22:17:55.749Z,15.67
2022-08-31T22:20:36.595Z,15.65
2022-08-31T22:23:18.920Z,15.68
2022-08-31T22:26:11.580Z,15.72
2022-08-31T22:28:51.073Z,15.73
2022-08-31T22:31:31.161Z,15.73
2022-08-31T22:34:12.047Z,15.63
2022-08-31T22:36:51.997Z,15.60
2022-08-31T22:39:33.854Z,15.60
2022-08-31T22:42:16.322Z,15.58
2022-08-31T22:44:56.053Z,15.58
2022-08-31T22:47:45.308Z,15.52
2022-08-31T22:51:13.979Z,15.54
2022-08-31T22:53:58.313Z,15.52
2022-08-31T22:56:40.031Z,15.51
2022-08-31T22:59:26.051Z,15.48
2022-08-31T23:02:06.575Z,15.48
2022-08-31T23:04:47.467Z,15.43
2022-08-31T23:07:26.775Z,15.45
2022-08-31T23:10:06.610Z,15.45
2022-08-31T23:12:48.092Z,15.42
2022-08-31T23:15:31.164Z,15.38
2022-08-31T23:18:10.797Z,15.37
2022-08-31T23:20:49.630Z,15.29
2022-08-31T23:23:49.648Z,15.25
2022-08-31T23:26:30.696Z,15.26
2022-08-31T23:29:10.164Z,15.21
2022-08-31T23:31:51.740Z,15.20
2022-08-31T23:34:32.601Z,15.15
2022-08-31T23:37:12.274Z,15.12
2022-08-31T23:39:53.360Z,15.13
2022-08-31T23:42:33.073Z,15.06
2022-08-31T23:45:12.997Z,14.94
2022-08-31T23:47:52.761Z,14.99
2022-08-31T23:50:50.632Z,14.98
2022-08-31T23:53:30.431Z,14.90
2022-08-31T23:56:13.861Z,14.93
2022-08-31T23:58:53.332Z,14.90
